createdAt,value
2023-04-13T00:02:23.959Z,98851.53
2023-04-13T00:07:28.049Z,98861.16
2023-04-13T00:12:29.490Z,98867.13
2023-04-13T00:17:31.334Z,98867.53
2023-04-13T00:22:32.778Z,98866.00
2023-04-13T00:27:34.209Z,98862.47
2023-04-13T00:32:38.612Z,98857.09
2023-04-13T00:37:43.093Z,98858.50
2023-04-13T00:42:49.364Z,98861.34
2023-04-13T00:47:51.933Z,98868.13
2023-04-13T00:52:53.680Z,98875.19
2023-04-13T00:57:55.448Z,98870.66
2023-04-13T01:02:57.042Z,98872.34
2023-04-13T01:08:09.332Z,98873.19
2023-04-13T01:13:25.948Z,98866.25
2023-04-13T01:18:30.113Z,98866.41
2023-04-13T01:23:50.291Z,98874.28
2023-04-13T01:28:52.976Z,98858.88
2023-04-13T01:33:54.677Z,98862.78
2023-04-13T01:38:56.115Z,98863.81
2023-04-13T01:43:58.512Z,98858.44
2023-04-13T01:49:02.520Z,98854.63
2023-04-13T01:54:07.914Z,98868.03
2023-04-13T01:59:10.309Z,98849.63
2023-04-13T02:04:11.837Z,98848.53
2023-04-13T02:09:13.327Z,98859.28
2023-04-13T02:14:15.638Z,98863.25
2023-04-13T02:19:17.077Z,98864.53
2023-04-13T02:24:18.543Z,98857.75
2023-04-13T02:29:19.947Z,98857.91
2023-04-13T02:34:21.380Z,98857.91
2023-04-13T02:39:22.829Z,98856.75
2023-04-13T02:44:24.269Z,98862.44
2023-04-13T02:49:25.676Z,98863.59
2023-04-13T02:54:27.172Z,98858.78
2023-04-13T02:59:28.605Z,98846.88
2023-04-13T03:04:31.192Z,98859.63
2023-04-13T03:09:32.733Z,98854.81
2023-04-13T03:14:34.202Z,98868.94
2023-04-13T03:19:36.060Z,98869.06
2023-04-13T03:24:37.645Z,98878.16
2023-04-13T03:29:39.088Z,98872.63
2023-04-13T03:34:44.420Z,98882.94
2023-04-13T03:39:46.676Z,98883.38
2023-04-13T03:44:48.094Z,98882.94
2023-04-13T03:49:49.746Z,98884.50
2023-04-13T03:54:51.290Z,98871.09
2023-04-13T03:59:52.783Z,98875.03
2023-04-13T04:04:54.300Z,98879.19
2023-04-13T04:09:55.790Z,98891.34
2023-04-13T04:14:57.222Z,98903.78
2023-04-13T04:19:58.662Z,98897.53
2023-04-13T04:25:01.791Z,98900.81
2023-04-13T04:30:05.419Z,98906.47
2023-04-13T04:35:08.043Z,98923.06
2023-04-13T04:40:09.899Z,98927.31
2023-04-13T04:45:11.522Z,98927.91
2023-04-13T04:50:17.703Z,98936.41
2023-04-13T04:55:19.364Z,98938.53
2023-04-13T05:00:21.207Z,98949.16
2023-04-13T05:05:23.293Z,98945.47
2023-04-13T05:10:28.287Z,98955.25
2023-04-13T05:15:29.757Z,98950.00
2023-04-13T05:20:32.067Z,98945.19
2023-04-13T05:25:33.476Z,98958.09
2023-04-13T05:30:35.338Z,98949.75
2023-04-13T05:35:37.715Z,98956.81
2023-04-13T05:40:39.382Z,98953.13
2023-04-13T05:45:41.099Z,98954.97
2023-04-13T05:50:43.566Z,98961.34
2023-04-13T05:55:46.181Z,98964.16
2023-04-13T06:00:49.574Z,98967.16
2023-04-13T06:05:52.841Z,98968.13
2023-04-13T06:10:54.282Z,98982.88
2023-04-13T06:15:55.702Z,98979.19
2023-04-13T06:20:58.178Z,98983.16
2023-04-13T06:25:59.760Z,98990.25
2023-04-13T06:31:01.361Z,99004.41
2023-04-13T06:36:02.817Z,98999.31
2023-04-13T06:41:04.777Z,99005.84
2023-04-13T06:46:06.590Z,99016.91
2023-04-13T06:51:08.150Z,99020.31
2023-04-13T06:56:09.562Z,99024.84
2023-04-13T07:01:12.423Z,99024.00
2023-04-13T07:06:14.088Z,99029.38
2023-04-13T07:11:15.544Z,99027.53
2023-04-13T07:16:17.037Z,99022.56
2023-04-13T07:21:18.592Z,99027.94
2023-04-13T07:26:20.094Z,99033.91
2023-04-13T07:31:21.861Z,99027.44
2023-04-13T07:36:23.889Z,99036.47
2023-04-13T07:41:25.343Z,99049.81
2023-04-13T07:46:27.467Z,99053.00
2023-04-13T07:51:29.907Z,99058.34
2023-04-13T07:56:31.702Z,99053.19
2023-04-13T08:01:33.217Z,99061.41
2023-04-13T08:06:34.792Z,99079.75
2023-04-13T08:11:36.274Z,99076.59
2023-04-13T08:16:38.074Z,99081.69
2023-04-13T08:21:41.054Z,99080.00
2023-04-13T08:26:42.554Z,99089.19
2023-04-13T08:31:44.128Z,99084.22
2023-04-13T08:36:48.469Z,99087.75
2023-04-13T08:41:50.795Z,99099.72
2023-04-13T08:46:53.357Z,99098.25
2023-04-13T08:51:59.572Z,99092.63
2023-04-13T08:57:02.675Z,99084.91
2023-04-13T09:02:06.765Z,99097.16
2023-04-13T09:07:17.177Z,99088.22
2023-04-13T09:12:18.670Z,99102.31
2023-04-13T09:17:28.247Z,99089.91
2023-04-13T09:22:29.708Z,99101.13
2023-04-13T09:27:31.185Z,99091.41
2023-04-13T09:32:32.617Z,99082.47
2023-04-13T09:37:36.715Z,99089.59
2023-04-13T09:42:40.417Z,99080.53
2023-04-13T09:47:42.393Z,99096.06
2023-04-13T09:52:45.121Z,99098.84
2023-04-13T09:57:46.621Z,99098.09
2023-04-13T10:02:50.851Z,99112.53
2023-04-13T10:07:52.434Z,99113.19
2023-04-13T10:12:57.711Z,99113.09
2023-04-13T10:18:14.519Z,99112.09
2023-04-13T10:23:17.006Z,99121.91
2023-04-13T10:28:18.917Z,99121.31
2023-04-13T10:33:23.304Z,99134.41
2023-04-13T10:38:25.357Z,99123.88
2023-04-13T10:43:31.621Z,99134.53
2023-04-13T10:48:33.459Z,99149.03
2023-04-13T10:53:35.358Z,99166.44
2023-04-13T10:58:36.860Z,99179.97
2023-04-13T11:03:40.157Z,99174.16
2023-04-13T11:08:48.540Z,99178.63
2023-04-13T11:13:50.136Z,99186.25
2023-04-13T11:19:04.438Z,99194.38
2023-04-13T11:24:06.323Z,99198.69
2023-04-13T11:29:18.257Z,99208.78
2023-04-13T11:34:26.317Z,99195.38
2023-04-13T11:39:28.871Z,99209.53
2023-04-13T11:44:30.357Z,99198.78
2023-04-13T11:49:32.492Z,99209.03
2023-04-13T11:54:34.154Z,99203.03
2023-04-13T11:59:38.674Z,99192.09
2023-04-13T12:04:41.329Z,99199.31
2023-04-13T12:09:56.400Z,99183.69
2023-04-13T12:20:10.286Z,99178.56
2023-04-13T12:25:20.900Z,99193.03
2023-04-13T12:30:23.248Z,99194.19
2023-04-13T12:35:24.759Z,99194.56
2023-04-13T12:40:26.506Z,99199.44
2023-04-13T12:45:28.474Z,99201.13
2023-04-13T12:50:31.874Z,99207.09
2023-04-13T12:55:33.929Z,99216.09
2023-04-13T13:00:35.479Z,99215.66
2023-04-13T13:05:36.920Z,99210.16
2023-04-13T13:10:39.176Z,99220.19
2023-04-13T13:15:40.724Z,99208.41
2023-04-13T13:20:42.356Z,99218.56
2023-04-13T13:25:57.101Z,99211.47
2023-04-13T13:31:07.886Z,99208.69
2023-04-13T13:36:09.393Z,99211.13
2023-04-13T13:41:11.076Z,99207.69
2023-04-13T13:46:12.634Z,99217.97
2023-04-13T13:51:14.247Z,99222.34
2023-04-13T13:56:17.230Z,99225.38
2023-04-13T14:01:18.710Z,99211.75
2023-04-13T14:06:20.394Z,99209.56
2023-04-13T14:11:22.530Z,99223.13
2023-04-13T14:16:24.119Z,99230.25
2023-04-13T14:21:26.519Z,99236.22
2023-04-13T14:26:28.010Z,99227.72
2023-04-13T14:31:29.912Z,99230.50
2023-04-13T14:36:32.231Z,99230.56
2023-04-13T14:41:33.657Z,99234.22
2023-04-13T14:46:35.099Z,99236.84
2023-04-13T14:51:37.322Z,99233.44
2023-04-13T14:56:38.868Z,99239.97
2023-04-13T15:01:41.366Z,99236.53
2023-04-13T15:06:42.975Z,99229.59
2023-04-13T15:11:44.712Z,99236.00
2023-04-13T15:16:46.495Z,99239.84
2023-04-13T15:21:48.060Z,99244.09
2023-04-13T15:26:49.543Z,99238.25
2023-04-13T15:31:51.872Z,99238.81
2023-04-13T15:36:53.572Z,99242.22
2023-04-13T15:41:55.247Z,99239.97
2023-04-13T15:46:56.723Z,99243.94
2023-04-13T15:51:58.184Z,99252.19
2023-04-13T15:56:59.618Z,99254.47
2023-04-13T16:02:01.443Z,99261.44
2023-04-13T16:07:12.603Z,99256.16
2023-04-13T16:12:15.489Z,99260.16
2023-04-13T16:17:16.902Z,99263.41
2023-04-13T16:22:18.344Z,99264.53
2023-04-13T16:27:19.808Z,99270.19
2023-04-13T16:32:21.321Z,99265.53
2023-04-13T16:37:23.103Z,99272.59
2023-04-13T16:42:24.702Z,99266.22
2023-04-13T16:47:26.389Z,99270.00
2023-04-13T16:52:27.840Z,99277.00
2023-04-13T16:57:29.300Z,99281.13
2023-04-13T17:02:31.652Z,99282.84
2023-04-13T17:07:33.252Z,99290.56
2023-04-13T17:12:35.350Z,99294.25
2023-04-13T17:17:38.201Z,99316.97
2023-04-13T17:22:40.055Z,99312.03
2023-04-13T17:27:41.671Z,99326.66
2023-04-13T17:32:43.517Z,99335.59
2023-04-13T17:37:44.975Z,99339.91
2023-04-13T17:42:46.582Z,99342.97
2023-04-13T17:47:48.172Z,99357.66
2023-04-13T17:52:49.609Z,99349.19
2023-04-13T17:57:51.063Z,99348.66
2023-04-13T18:02:52.770Z,99365.09
2023-04-13T18:07:54.413Z,99362.88
2023-04-13T18:12:59.100Z,99362.59
2023-04-13T18:18:00.643Z,99379.94
2023-04-13T18:23:02.082Z,99373.72
2023-04-13T18:28:03.590Z,99383.09
2023-04-13T18:33:05.082Z,99392.25
2023-04-13T18:38:06.511Z,99401.69
2023-04-13T18:43:07.968Z,99404.91
2023-04-13T18:48:09.858Z,99400.31
2023-04-13T18:53:11.478Z,99388.81
2023-04-13T18:58:12.903Z,99395.28
2023-04-13T19:03:14.590Z,99397.75
2023-04-13T19:08:16.822Z,99406.06
2023-04-13T19:13:18.292Z,99407.75
2023-04-13T19:18:19.695Z,99410.59
2023-04-13T19:23:21.167Z,99411.44
2023-04-13T19:28:22.588Z,99405.69
2023-04-13T19:33:24.007Z,99426.72
2023-04-13T19:38:25.418Z,99419.97
2023-04-13T19:43:28.141Z,99422.63
2023-04-13T19:48:29.610Z,99423.59
2023-04-13T19:53:31.031Z,99420.16
2023-04-13T19:58:32.763Z,99421.44
2023-04-13T20:03:35.455Z,99410.47
2023-04-13T20:08:37.055Z,99419.69
2023-04-13T20:13:40.199Z,99420.66
2023-04-13T20:18:42.072Z,99415.91
2023-04-13T20:23:43.483Z,99410.88
2023-04-13T20:28:44.909Z,99419.63
2023-04-13T20:33:46.389Z,99411.09
2023-04-13T20:38:48.286Z,99414.41
2023-04-13T20:43:50.791Z,99419.63
2023-04-13T20:48:52.674Z,99407.91
2023-04-13T20:53:54.166Z,99411.03
2023-04-13T20:58:57.791Z,99414.84
2023-04-13T21:03:59.819Z,99413.88
2023-04-13T21:09:04.329Z,99398.75
2023-04-13T21:14:05.917Z,99389.44
2023-04-13T21:19:07.506Z,99382.72
2023-04-13T21:24:09.193Z,99376.56
2023-04-13T21:29:11.013Z,99365.94
2023-04-13T21:34:12.471Z,99355.09
2023-04-13T21:39:13.913Z,99358.91
2023-04-13T21:44:28.702Z,99346.91
2023-04-13T21:49:31.193Z,99330.47
2023-04-13T21:54:32.676Z,99337.38
2023-04-13T21:59:34.140Z,99340.25
2023-04-13T22:04:35.852Z,99332.91
2023-04-13T22:09:37.415Z,99328.72
2023-04-13T22:14:38.861Z,99333.84
2023-04-13T22:19:40.450Z,99331.72
2023-04-13T22:24:41.866Z,99341.28
2023-04-13T22:29:43.271Z,99346.16
2023-04-13T22:34:44.683Z,99336.34
2023-04-13T22:39:46.114Z,99336.06
2023-04-13T22:44:47.527Z,99324.06
2023-04-13T22:49:48.951Z,99328.44
2023-04-13T22:54:50.359Z,99325.56
2023-04-13T22:59:51.839Z,99319.94
2023-04-13T23:04:53.320Z,99322.94
2023-04-13T23:09:54.739Z,99328.88
2023-04-13T23:14:56.195Z,99317.91
2023-04-13T23:19:57.645Z,99308.56
2023-04-13T23:24:59.237Z,99316.91
2023-04-13T23:30:00.779Z,99308.72
2023-04-13T23:35:02.275Z,99304.44
2023-04-13T23:40:03.910Z,99308.13
2023-04-13T23:45:05.990Z,99302.22
2023-04-13T23:50:07.611Z,99304.22
2023-04-13T23:55:09.355Z,99307.97
